sensor_id;sensor_type;location;lat;lon;timestamp;P1;durP1;ratioP1;P2;durP2;ratioP2
28523;SDS011;15734;50.904;6.922;2023-08-06T00:00:05;9.82;;;5.85;;
28523;SDS011;15734;50.904;6.922;2023-08-06T00:02:31;11.35;;;5.40;;
28523;SDS011;15734;50.904;6.922;2023-08-06T00:04:56;13.13;;;5.80;;
28523;SDS011;15734;50.904;6.922;2023-08-06T00:07:22;8.05;;;5.75;;
28523;SDS011;15734;50.904;6.922;2023-08-06T00:09:48;10.15;;;5.53;;
28523;SDS011;15734;50.904;6.922;2023-08-06T00:12:13;10.15;;;4.78;;
28523;SDS011;15734;50.904;6.922;2023-08-06T00:14:39;14.32;;;5.28;;
28523;SDS011;15734;50.904;6.922;2023-08-06T00:17:04;9.30;;;5.55;;
28523;SDS011;15734;50.904;6.922;2023-08-06T00:19:31;8.27;;;4.80;;
28523;SDS011;15734;50.904;6.922;2023-08-06T00:21:57;7.13;;;4.07;;
28523;SDS011;15734;50.904;6.922;2023-08-06T00:24:22;8.20;;;4.45;;
28523;SDS011;15734;50.904;6.922;2023-08-06T00:26:48;14.48;;;4.70;;
28523;SDS011;15734;50.904;6.922;2023-08-06T00:29:13;10.93;;;5.10;;
28523;SDS011;15734;50.904;6.922;2023-08-06T00:31:39;8.43;;;4.40;;
28523;SDS011;15734;50.904;6.922;2023-08-06T00:34:05;8.77;;;5.57;;
28523;SDS011;15734;50.904;6.922;2023-08-06T00:36:30;11.55;;;4.65;;
28523;SDS011;15734;50.904;6.922;2023-08-06T00:38:56;10.82;;;5.80;;
28523;SDS011;15734;50.904;6.922;2023-08-06T00:41:21;6.10;;;4.65;;
28523;SDS011;15734;50.904;6.922;2023-08-06T00:43:47;8.05;;;5.45;;
28523;SDS011;15734;50.904;6.922;2023-08-06T00:46:12;9.20;;;5.10;;
28523;SDS011;15734;50.904;6.922;2023-08-06T00:48:39;14.57;;;5.13;;
28523;SDS011;15734;50.904;6.922;2023-08-06T00:51:05;13.48;;;5.63;;
28523;SDS011;15734;50.904;6.922;2023-08-06T00:53:31;11.15;;;6.00;;
28523;SDS011;15734;50.904;6.922;2023-08-06T00:55:57;8.32;;;4.93;;
28523;SDS011;15734;50.904;6.922;2023-08-06T00:58:23;13.20;;;6.20;;
28523;SDS011;15734;50.904;6.922;2023-08-06T01:00:49;8.95;;;5.03;;
28523;SDS011;15734;50.904;6.922;2023-08-06T01:03:14;16.55;;;5.80;;
28523;SDS011;15734;50.904;6.922;2023-08-06T01:05:40;16.42;;;5.55;;
28523;SDS011;15734;50.904;6.922;2023-08-06T01:08:15;11.65;;;5.45;;
28523;SDS011;15734;50.904;6.922;2023-08-06T01:14:06;8.50;;;4.50;;
28523;SDS011;15734;50.904;6.922;2023-08-06T01:16:38;10.77;;;5.03;;
28523;SDS011;15734;50.904;6.922;2023-08-06T01:19:05;12.13;;;5.57;;
28523;SDS011;15734;50.904;6.922;2023-08-06T01:21:41;9.75;;;5.80;;
28523;SDS011;15734;50.904;6.922;2023-08-06T01:24:07;12.35;;;6.20;;
28523;SDS011;15734;50.904;6.922;2023-08-06T01:26:33;7.47;;;5.15;;
28523;SDS011;15734;50.904;6.922;2023-08-06T01:29:09;15.38;;;5.50;;
28523;SDS011;15734;50.904;6.922;2023-08-06T01:31:50;13.52;;;4.95;;
28523;SDS011;15734;50.904;6.922;2023-08-06T01:34:20;9.60;;;5.40;;
28523;SDS011;15734;50.904;6.922;2023-08-06T01:36:47;8.05;;;4.95;;
28523;SDS011;15734;50.904;6.922;2023-08-06T01:39:13;9.45;;;4.35;;
28523;SDS011;15734;50.904;6.922;2023-08-06T01:41:39;7.95;;;4.43;;
28523;SDS011;15734;50.904;6.922;2023-08-06T01:44:04;10.07;;;4.93;;
28523;SDS011;15734;50.904;6.922;2023-08-06T01:46:29;13.05;;;4.90;;
28523;SDS011;15734;50.904;6.922;2023-08-06T01:48:55;9.00;;;5.55;;
28523;SDS011;15734;50.904;6.922;2023-08-06T01:51:21;7.53;;;4.43;;
28523;SDS011;15734;50.904;6.922;2023-08-06T01:53:46;8.88;;;5.00;;
28523;SDS011;15734;50.904;6.922;2023-08-06T01:56:11;10.05;;;4.82;;
28523;SDS011;15734;50.904;6.922;2023-08-06T01:58:37;11.82;;;5.80;;
28523;SDS011;15734;50.904;6.922;2023-08-06T02:01:03;13.57;;;5.03;;
28523;SDS011;15734;50.904;6.922;2023-08-06T02:03:28;6.25;;;4.55;;
28523;SDS011;15734;50.904;6.922;2023-08-06T02:05:54;6.93;;;4.68;;
28523;SDS011;15734;50.904;6.922;2023-08-06T02:08:20;14.25;;;5.53;;
28523;SDS011;15734;50.904;6.922;2023-08-06T02:10:45;12.05;;;5.40;;
28523;SDS011;15734;50.904;6.922;2023-08-06T02:13:11;10.43;;;5.53;;
28523;SDS011;15734;50.904;6.922;2023-08-06T02:15:41;9.38;;;5.50;;
28523;SDS011;15734;50.904;6.922;2023-08-06T02:18:12;9.25;;;5.80;;
28523;SDS011;15734;50.904;6.922;2023-08-06T02:20:39;8.55;;;5.78;;
28523;SDS011;15734;50.904;6.922;2023-08-06T02:23:05;7.55;;;5.45;;
28523;SDS011;15734;50.904;6.922;2023-08-06T02:25:30;12.88;;;6.35;;
28523;SDS011;15734;50.904;6.922;2023-08-06T02:27:56;7.93;;;5.55;;
28523;SDS011;15734;50.904;6.922;2023-08-06T02:30:21;11.23;;;6.53;;
28523;SDS011;15734;50.904;6.922;2023-08-06T02:32:47;16.77;;;5.90;;
28523;SDS011;15734;50.904;6.922;2023-08-06T02:35:13;9.25;;;5.85;;
28523;SDS011;15734;50.904;6.922;2023-08-06T02:37:38;17.75;;;6.10;;
28523;SDS011;15734;50.904;6.922;2023-08-06T02:40:04;11.63;;;6.43;;
28523;SDS011;15734;50.904;6.922;2023-08-06T02:42:30;14.63;;;6.32;;
28523;SDS011;15734;50.904;6.922;2023-08-06T02:44:55;10.15;;;6.63;;
28523;SDS011;15734;50.904;6.922;2023-08-06T02:47:21;12.00;;;5.90;;
28523;SDS011;15734;50.904;6.922;2023-08-06T02:49:46;11.43;;;6.45;;
28523;SDS011;15734;50.904;6.922;2023-08-06T02:52:12;8.40;;;5.82;;
28523;SDS011;15734;50.904;6.922;2023-08-06T02:54:37;15.75;;;6.35;;
28523;SDS011;15734;50.904;6.922;2023-08-06T02:57:04;15.93;;;6.25;;
28523;SDS011;15734;50.904;6.922;2023-08-06T02:59:30;8.55;;;5.13;;
28523;SDS011;15734;50.904;6.922;2023-08-06T03:01:56;15.77;;;5.82;;
28523;SDS011;15734;50.904;6.922;2023-08-06T03:04:22;12.00;;;5.90;;
28523;SDS011;15734;50.904;6.922;2023-08-06T03:06:51;11.32;;;5.75;;
28523;SDS011;15734;50.904;6.922;2023-08-06T03:09:17;13.65;;;5.95;;
28523;SDS011;15734;50.904;6.922;2023-08-06T03:11:43;10.35;;;5.82;;
28523;SDS011;15734;50.904;6.922;2023-08-06T03:14:08;11.90;;;5.28;;
28523;SDS011;15734;50.904;6.922;2023-08-06T03:16:34;8.43;;;5.30;;
28523;SDS011;15734;50.904;6.922;2023-08-06T03:19:00;16.35;;;6.10;;
28523;SDS011;15734;50.904;6.922;2023-08-06T03:21:26;14.38;;;5.40;;
28523;SDS011;15734;50.904;6.922;2023-08-06T03:23:51;7.32;;;4.78;;
28523;SDS011;15734;50.904;6.922;2023-08-06T03:26:17;6.93;;;4.60;;
28523;SDS011;15734;50.904;6.922;2023-08-06T03:28:43;9.68;;;5.47;;
28523;SDS011;15734;50.904;6.922;2023-08-06T03:31:08;9.48;;;5.38;;
28523;SDS011;15734;50.904;6.922;2023-08-06T03:33:34;7.43;;;5.38;;
28523;SDS011;15734;50.904;6.922;2023-08-06T03:35:59;8.00;;;5.05;;
28523;SDS011;15734;50.904;6.922;2023-08-06T03:38:25;11.70;;;5.60;;
28523;SDS011;15734;50.904;6.922;2023-08-06T03:40:50;14.70;;;4.90;;
28523;SDS011;15734;50.904;6.922;2023-08-06T03:43:16;7.97;;;4.78;;
28523;SDS011;15734;50.904;6.922;2023-08-06T03:45:41;13.02;;;5.22;;
28523;SDS011;15734;50.904;6.922;2023-08-06T03:48:07;7.30;;;4.55;;
28523;SDS011;15734;50.904;6.922;2023-08-06T03:50:33;7.03;;;5.10;;
28523;SDS011;15734;50.904;6.922;2023-08-06T03:52:59;5.82;;;4.63;;
28523;SDS011;15734;50.904;6.922;2023-08-06T03:55:25;8.55;;;4.32;;
28523;SDS011;15734;50.904;6.922;2023-08-06T03:57:50;11.38;;;5.22;;
28523;SDS011;15734;50.904;6.922;2023-08-06T04:00:16;7.10;;;4.40;;
28523;SDS011;15734;50.904;6.922;2023-08-06T04:02:41;7.40;;;4.30;;
28523;SDS011;15734;50.904;6.922;2023-08-06T04:05:07;7.72;;;4.40;;
28523;SDS011;15734;50.904;6.922;2023-08-06T04:07:33;15.75;;;5.88;;
28523;SDS011;15734;50.904;6.922;2023-08-06T04:09:59;9.10;;;5.00;;
28523;SDS011;15734;50.904;6.922;2023-08-06T04:12:26;11.65;;;4.68;;
28523;SDS011;15734;50.904;6.922;2023-08-06T04:14:52;10.23;;;4.82;;
28523;SDS011;15734;50.904;6.922;2023-08-06T04:17:19;11.88;;;4.78;;
28523;SDS011;15734;50.904;6.922;2023-08-06T04:19:51;7.10;;;4.90;;
28523;SDS011;15734;50.904;6.922;2023-08-06T04:22:18;9.20;;;5.32;;
28523;SDS011;15734;50.904;6.922;2023-08-06T04:24:44;8.93;;;4.72;;
28523;SDS011;15734;50.904;6.922;2023-08-06T04:27:10;11.35;;;5.88;;
28523;SDS011;15734;50.904;6.922;2023-08-06T04:29:36;12.98;;;5.25;;
28523;SDS011;15734;50.904;6.922;2023-08-06T04:32:06;14.15;;;5.60;;
28523;SDS011;15734;50.904;6.922;2023-08-06T04:34:32;14.73;;;5.32;;
28523;SDS011;15734;50.904;6.922;2023-08-06T04:36:59;14.32;;;5.35;;
28523;SDS011;15734;50.904;6.922;2023-08-06T04:39:25;12.60;;;5.00;;
28523;SDS011;15734;50.904;6.922;2023-08-06T04:41:51;11.00;;;4.78;;
28523;SDS011;15734;50.904;6.922;2023-08-06T04:44:16;8.82;;;5.72;;
28523;SDS011;15734;50.904;6.922;2023-08-06T04:46:42;13.13;;;5.28;;
28523;SDS011;15734;50.904;6.922;2023-08-06T04:49:07;12.45;;;5.40;;
28523;SDS011;15734;50.904;6.922;2023-08-06T04:51:33;8.20;;;5.25;;
28523;SDS011;15734;50.904;6.922;2023-08-06T04:53:58;8.18;;;4.78;;
28523;SDS011;15734;50.904;6.922;2023-08-06T04:56:24;8.50;;;5.20;;
28523;SDS011;15734;50.904;6.922;2023-08-06T04:58:50;10.98;;;5.05;;
28523;SDS011;15734;50.904;6.922;2023-08-06T05:01:15;19.52;;;5.38;;
28523;SDS011;15734;50.904;6.922;2023-08-06T05:03:41;14.20;;;4.78;;
28523;SDS011;15734;50.904;6.922;2023-08-06T05:06:06;10.77;;;5.47;;
28523;SDS011;15734;50.904;6.922;2023-08-06T05:08:32;10.43;;;4.80;;
28523;SDS011;15734;50.904;6.922;2023-08-06T05:10:58;9.07;;;5.20;;
28523;SDS011;15734;50.904;6.922;2023-08-06T05:13:23;10.63;;;5.03;;
28523;SDS011;15734;50.904;6.922;2023-08-06T05:15:50;9.30;;;5.10;;
28523;SDS011;15734;50.904;6.922;2023-08-06T05:18:16;8.95;;;4.65;;
28523;SDS011;15734;50.904;6.922;2023-08-06T05:20:42;16.35;;;5.78;;
28523;SDS011;15734;50.904;6.922;2023-08-06T05:23:08;8.02;;;4.93;;
28523;SDS011;15734;50.904;6.922;2023-08-06T05:25:34;6.68;;;4.75;;
28523;SDS011;15734;50.904;6.922;2023-08-06T05:28:00;8.40;;;5.13;;
28523;SDS011;15734;50.904;6.922;2023-08-06T05:30:27;11.48;;;5.38;;
28523;SDS011;15734;50.904;6.922;2023-08-06T05:32:53;9.23;;;4.80;;
28523;SDS011;15734;50.904;6.922;2023-08-06T05:35:18;7.75;;;4.28;;
28523;SDS011;15734;50.904;6.922;2023-08-06T05:37:44;10.52;;;4.90;;
28523;SDS011;15734;50.904;6.922;2023-08-06T05:40:10;8.73;;;5.25;;
28523;SDS011;15734;50.904;6.922;2023-08-06T05:42:36;11.32;;;4.78;;
28523;SDS011;15734;50.904;6.922;2023-08-06T05:45:01;12.90;;;4.57;;
28523;SDS011;15734;50.904;6.922;2023-08-06T05:47:27;10.45;;;4.20;;
28523;SDS011;15734;50.904;6.922;2023-08-06T05:49:53;9.27;;;4.60;;
28523;SDS011;15734;50.904;6.922;2023-08-06T05:52:18;9.88;;;4.72;;
28523;SDS011;15734;50.904;6.922;2023-08-06T05:54:44;11.27;;;5.15;;
28523;SDS011;15734;50.904;6.922;2023-08-06T05:57:09;15.60;;;5.00;;
28523;SDS011;15734;50.904;6.922;2023-08-06T05:59:35;13.98;;;5.18;;
28523;SDS011;15734;50.904;6.922;2023-08-06T06:02:00;8.48;;;4.93;;
28523;SDS011;15734;50.904;6.922;2023-08-06T06:04:26;12.05;;;4.18;;
28523;SDS011;15734;50.904;6.922;2023-08-06T06:06:53;6.07;;;3.50;;
28523;SDS011;15734;50.904;6.922;2023-08-06T06:09:18;6.63;;;3.35;;
28523;SDS011;15734;50.904;6.922;2023-08-06T06:11:44;8.75;;;3.10;;
28523;SDS011;15734;50.904;6.922;2023-08-06T06:14:09;5.75;;;3.17;;
28523;SDS011;15734;50.904;6.922;2023-08-06T06:16:35;4.28;;;2.30;;
28523;SDS011;15734;50.904;6.922;2023-08-06T06:19:01;3.28;;;2.10;;
28523;SDS011;15734;50.904;6.922;2023-08-06T06:21:26;5.35;;;2.03;;
28523;SDS011;15734;50.904;6.922;2023-08-06T06:23:52;4.97;;;2.25;;
28523;SDS011;15734;50.904;6.922;2023-08-06T06:26:18;7.55;;;2.70;;
28523;SDS011;15734;50.904;6.922;2023-08-06T06:28:43;4.15;;;2.00;;
28523;SDS011;15734;50.904;6.922;2023-08-06T06:31:09;7.60;;;3.97;;
28523;SDS011;15734;50.904;6.922;2023-08-06T06:33:35;3.17;;;2.15;;
28523;SDS011;15734;50.904;6.922;2023-08-06T06:36:00;4.20;;;2.03;;
28523;SDS011;15734;50.904;6.922;2023-08-06T06:38:28;2.08;;;1.40;;
28523;SDS011;15734;50.904;6.922;2023-08-06T06:40:57;5.05;;;2.45;;
28523;SDS011;15734;50.904;6.922;2023-08-06T06:43:23;3.95;;;2.00;;
28523;SDS011;15734;50.904;6.922;2023-08-06T06:45:52;2.22;;;1.50;;
28523;SDS011;15734;50.904;6.922;2023-08-06T06:48:19;1.70;;;1.35;;
28523;SDS011;15734;50.904;6.922;2023-08-06T06:50:47;4.28;;;1.00;;
28523;SDS011;15734;50.904;6.922;2023-08-06T06:53:13;2.47;;;1.10;;
28523;SDS011;15734;50.904;6.922;2023-08-06T06:55:39;4.38;;;1.35;;
28523;SDS011;15734;50.904;6.922;2023-08-06T06:58:04;2.90;;;1.05;;
28523;SDS011;15734;50.904;6.922;2023-08-06T07:00:30;4.13;;;1.40;;
28523;SDS011;15734;50.904;6.922;2023-08-06T07:02:55;2.83;;;1.77;;
28523;SDS011;15734;50.904;6.922;2023-08-06T07:05:21;2.47;;;1.63;;
28523;SDS011;15734;50.904;6.922;2023-08-06T07:07:46;5.85;;;1.48;;
28523;SDS011;15734;50.904;6.922;2023-08-06T07:10:11;1.65;;;1.50;;
28523;SDS011;15734;50.904;6.922;2023-08-06T07:12:37;8.15;;;1.60;;
28523;SDS011;15734;50.904;6.922;2023-08-06T07:15:04;2.17;;;1.92;;
28523;SDS011;15734;50.904;6.922;2023-08-06T07:17:31;3.95;;;1.90;;
28523;SDS011;15734;50.904;6.922;2023-08-06T07:19:56;5.82;;;1.98;;
28523;SDS011;15734;50.904;6.922;2023-08-06T07:22:22;3.15;;;1.67;;
28523;SDS011;15734;50.904;6.922;2023-08-06T07:24:47;3.47;;;2.00;;
28523;SDS011;15734;50.904;6.922;2023-08-06T07:27:13;4.00;;;2.00;;
28523;SDS011;15734;50.904;6.922;2023-08-06T07:29:38;6.70;;;2.38;;
28523;SDS011;15734;50.904;6.922;2023-08-06T07:32:05;3.97;;;2.00;;
28523;SDS011;15734;50.904;6.922;2023-08-06T07:34:32;5.28;;;2.47;;
28523;SDS011;15734;50.904;6.922;2023-08-06T07:36:57;4.82;;;2.15;;
28523;SDS011;15734;50.904;6.922;2023-08-06T07:39:23;3.22;;;2.20;;
28523;SDS011;15734;50.904;6.922;2023-08-06T07:41:48;4.32;;;2.72;;
28523;SDS011;15734;50.904;6.922;2023-08-06T07:44:14;5.03;;;2.05;;
28523;SDS011;15734;50.904;6.922;2023-08-06T07:46:40;13.82;;;2.33;;
28523;SDS011;15734;50.904;6.922;2023-08-06T07:49:05;2.53;;;2.33;;
28523;SDS011;15734;50.904;6.922;2023-08-06T07:51:31;3.50;;;2.13;;
28523;SDS011;15734;50.904;6.922;2023-08-06T07:53:56;7.22;;;2.03;;
28523;SDS011;15734;50.904;6.922;2023-08-06T07:56:22;3.70;;;2.80;;
28523;SDS011;15734;50.904;6.922;2023-08-06T07:58:47;4.57;;;2.67;;
28523;SDS011;15734;50.904;6.922;2023-08-06T08:01:13;2.63;;;2.30;;
28523;SDS011;15734;50.904;6.922;2023-08-06T08:03:38;8.02;;;2.78;;
28523;SDS011;15734;50.904;6.922;2023-08-06T08:06:04;5.35;;;2.70;;
28523;SDS011;15734;50.904;6.922;2023-08-06T08:08:29;3.92;;;2.47;;
28523;SDS011;15734;50.904;6.922;2023-08-06T08:10:55;5.30;;;2.75;;
28523;SDS011;15734;50.904;6.922;2023-08-06T08:13:21;5.72;;;2.67;;
28523;SDS011;15734;50.904;6.922;2023-08-06T08:15:46;3.67;;;2.45;;
28523;SDS011;15734;50.904;6.922;2023-08-06T08:18:12;3.13;;;2.40;;
28523;SDS011;15734;50.904;6.922;2023-08-06T08:20:37;4.22;;;2.58;;
28523;SDS011;15734;50.904;6.922;2023-08-06T08:23:03;5.10;;;2.10;;
28523;SDS011;15734;50.904;6.922;2023-08-06T08:25:28;3.70;;;2.47;;
28523;SDS011;15734;50.904;6.922;2023-08-06T08:27:54;3.95;;;1.95;;
28523;SDS011;15734;50.904;6.922;2023-08-06T08:30:20;4.88;;;1.92;;
28523;SDS011;15734;50.904;6.922;2023-08-06T08:32:47;4.25;;;1.95;;
28523;SDS011;15734;50.904;6.922;2023-08-06T08:35:13;1.90;;;1.77;;
28523;SDS011;15734;50.904;6.922;2023-08-06T08:37:39;3.10;;;1.60;;
28523;SDS011;15734;50.904;6.922;2023-08-06T08:40:05;1.77;;;1.30;;
28523;SDS011;15734;50.904;6.922;2023-08-06T08:42:32;1.70;;;1.60;;
28523;SDS011;15734;50.904;6.922;2023-08-06T08:44:57;2.15;;;1.45;;
28523;SDS011;15734;50.904;6.922;2023-08-06T08:47:23;1.05;;;1.02;;
28523;SDS011;15734;50.904;6.922;2023-08-06T08:49:50;4.20;;;1.30;;
28523;SDS011;15734;50.904;6.922;2023-08-06T08:52:19;1.77;;;1.33;;
28523;SDS011;15734;50.904;6.922;2023-08-06T08:54:47;2.53;;;1.35;;
28523;SDS011;15734;50.904;6.922;2023-08-06T08:57:18;3.25;;;1.60;;
28523;SDS011;15734;50.904;6.922;2023-08-06T08:59:44;3.20;;;1.38;;
28523;SDS011;15734;50.904;6.922;2023-08-06T09:02:10;2.75;;;1.30;;
28523;SDS011;15734;50.904;6.922;2023-08-06T09:04:37;2.42;;;1.45;;
28523;SDS011;15734;50.904;6.922;2023-08-06T09:07:04;1.40;;;1.08;;
28523;SDS011;15734;50.904;6.922;2023-08-06T09:09:31;3.65;;;1.33;;
28523;SDS011;15734;50.904;6.922;2023-08-06T09:12:02;2.95;;;1.50;;
28523;SDS011;15734;50.904;6.922;2023-08-06T09:14:36;4.53;;;1.45;;
28523;SDS011;15734;50.904;6.922;2023-08-06T09:17:01;2.60;;;1.23;;
28523;SDS011;15734;50.904;6.922;2023-08-06T09:19:27;1.80;;;1.48;;
28523;SDS011;15734;50.904;6.922;2023-08-06T09:21:53;2.72;;;1.50;;
28523;SDS011;15734;50.904;6.922;2023-08-06T09:24:21;1.77;;;1.35;;
28523;SDS011;15734;50.904;6.922;2023-08-06T09:26:47;2.53;;;1.77;;
28523;SDS011;15734;50.904;6.922;2023-08-06T09:29:12;4.55;;;1.70;;
28523;SDS011;15734;50.904;6.922;2023-08-06T09:31:48;1.50;;;1.40;;
28523;SDS011;15734;50.904;6.922;2023-08-06T09:34:17;2.13;;;1.80;;
28523;SDS011;15734;50.904;6.922;2023-08-06T09:36:53;2.03;;;1.65;;
28523;SDS011;15734;50.904;6.922;2023-08-06T09:39:19;2.67;;;1.92;;
28523;SDS011;15734;50.904;6.922;2023-08-06T09:41:46;3.63;;;1.90;;
28523;SDS011;15734;50.904;6.922;2023-08-06T09:44:19;2.30;;;2.10;;
28523;SDS011;15734;50.904;6.922;2023-08-06T09:46:47;4.90;;;2.47;;
28523;SDS011;15734;50.904;6.922;2023-08-06T09:49:14;5.32;;;2.85;;
28523;SDS011;15734;50.904;6.922;2023-08-06T09:51:40;5.65;;;3.47;;
28523;SDS011;15734;50.904;6.922;2023-08-06T09:54:06;4.60;;;3.65;;
28523;SDS011;15734;50.904;6.922;2023-08-06T09:56:33;4.85;;;4.35;;
28523;SDS011;15734;50.904;6.922;2023-08-06T09:59:03;8.70;;;4.45;;
28523;SDS011;15734;50.904;6.922;2023-08-06T10:01:31;6.53;;;5.30;;
28523;SDS011;15734;50.904;6.922;2023-08-06T10:03:58;9.73;;;4.95;;
28523;SDS011;15734;50.904;6.922;2023-08-06T10:06:26;5.38;;;4.10;;
28523;SDS011;15734;50.904;6.922;2023-08-06T10:08:52;4.90;;;4.20;;
28523;SDS011;15734;50.904;6.922;2023-08-06T10:11:17;3.58;;;2.15;;
28523;SDS011;15734;50.904;6.922;2023-08-06T10:13:46;3.13;;;1.30;;
28523;SDS011;15734;50.904;6.922;2023-08-06T10:16:13;1.63;;;1.08;;
28523;SDS011;15734;50.904;6.922;2023-08-06T10:18:39;2.42;;;0.80;;
28523;SDS011;15734;50.904;6.922;2023-08-06T10:21:07;0.68;;;0.50;;
28523;SDS011;15734;50.904;6.922;2023-08-06T10:23:34;0.77;;;0.77;;
28523;SDS011;15734;50.904;6.922;2023-08-06T10:26:00;1.38;;;0.68;;
28523;SDS011;15734;50.904;6.922;2023-08-06T10:28:36;0.80;;;0.77;;
28523;SDS011;15734;50.904;6.922;2023-08-06T10:31:02;3.53;;;0.65;;
28523;SDS011;15734;50.904;6.922;2023-08-06T10:33:41;1.85;;;0.90;;
28523;SDS011;15734;50.904;6.922;2023-08-06T10:36:10;1.50;;;1.10;;
28523;SDS011;15734;50.904;6.922;2023-08-06T10:38:49;3.40;;;1.40;;
28523;SDS011;15734;50.904;6.922;2023-08-06T10:41:16;3.17;;;1.40;;
28523;SDS011;15734;50.904;6.922;2023-08-06T10:44:07;3.97;;;1.80;;
28523;SDS011;15734;50.904;6.922;2023-08-06T10:46:33;4.40;;;1.98;;
28523;SDS011;15734;50.904;6.922;2023-08-06T10:48:59;4.40;;;1.92;;
28523;SDS011;15734;50.904;6.922;2023-08-06T10:51:25;2.28;;;1.75;;
28523;SDS011;15734;50.904;6.922;2023-08-06T10:53:52;6.20;;;2.38;;
28523;SDS011;15734;50.904;6.922;2023-08-06T10:56:21;5.00;;;2.60;;
28523;SDS011;15734;50.904;6.922;2023-08-06T10:58:48;5.40;;;2.05;;
28523;SDS011;15734;50.904;6.922;2023-08-06T11:01:15;4.50;;;1.90;;
28523;SDS011;15734;50.904;6.922;2023-08-06T11:03:41;4.68;;;1.90;;
28523;SDS011;15734;50.904;6.922;2023-08-06T11:06:08;4.88;;;2.13;;
28523;SDS011;15734;50.904;6.922;2023-08-06T11:08:35;4.97;;;1.95;;
28523;SDS011;15734;50.904;6.922;2023-08-06T11:11:14;4.65;;;1.90;;
28523;SDS011;15734;50.904;6.922;2023-08-06T11:13:48;3.50;;;2.60;;
28523;SDS011;15734;50.904;6.922;2023-08-06T11:16:18;9.75;;;2.60;;
28523;SDS011;15734;50.904;6.922;2023-08-06T11:18:45;5.68;;;2.33;;
28523;SDS011;15734;50.904;6.922;2023-08-06T11:21:12;8.75;;;3.13;;
28523;SDS011;15734;50.904;6.922;2023-08-06T11:23:38;5.88;;;2.20;;
28523;SDS011;15734;50.904;6.922;2023-08-06T11:26:04;9.02;;;2.30;;
28523;SDS011;15734;50.904;6.922;2023-08-06T11:28:30;12.55;;;2.65;;
28523;SDS011;15734;50.904;6.922;2023-08-06T11:30:55;6.40;;;2.15;;
28523;SDS011;15734;50.904;6.922;2023-08-06T11:33:22;5.13;;;2.08;;
28523;SDS011;15734;50.904;6.922;2023-08-06T11:35:52;9.25;;;2.30;;
28523;SDS011;15734;50.904;6.922;2023-08-06T11:38:26;5.00;;;1.98;;
28523;SDS011;15734;50.904;6.922;2023-08-06T11:40:53;7.80;;;1.85;;
28523;SDS011;15734;50.904;6.922;2023-08-06T11:43:19;11.68;;;2.47;;
28523;SDS011;15734;50.904;6.922;2023-08-06T11:45:47;5.47;;;1.85;;
28523;SDS011;15734;50.904;6.922;2023-08-06T11:48:13;6.80;;;1.55;;
28523;SDS011;15734;50.904;6.922;2023-08-06T11:50:39;3.47;;;1.50;;
28523;SDS011;15734;50.904;6.922;2023-08-06T11:53:04;8.00;;;1.63;;
28523;SDS011;15734;50.904;6.922;2023-08-06T11:55:30;5.63;;;2.25;;
28523;SDS011;15734;50.904;6.922;2023-08-06T11:57:56;8.68;;;1.73;;
28523;SDS011;15734;50.904;6.922;2023-08-06T12:00:23;2.55;;;1.20;;
28523;SDS011;15734;50.904;6.922;2023-08-06T12:02:50;9.75;;;2.17;;
28523;SDS011;15734;50.904;6.922;2023-08-06T12:05:20;6.30;;;1.58;;
28523;SDS011;15734;50.904;6.922;2023-08-06T12:07:52;8.00;;;1.27;;
28523;SDS011;15734;50.904;6.922;2023-08-06T12:10:20;1.50;;;0.95;;
28523;SDS011;15734;50.904;6.922;2023-08-06T12:12:47;6.45;;;1.30;;
28523;SDS011;15734;50.904;6.922;2023-08-06T12:15:13;3.33;;;1.38;;
28523;SDS011;15734;50.904;6.922;2023-08-06T12:17:39;3.45;;;1.33;;
28523;SDS011;15734;50.904;6.922;2023-08-06T12:20:05;6.75;;;1.50;;
28523;SDS011;15734;50.904;6.922;2023-08-06T12:22:32;4.57;;;1.55;;
28523;SDS011;15734;50.904;6.922;2023-08-06T12:25:03;2.60;;;1.25;;
28523;SDS011;15734;50.904;6.922;2023-08-06T12:27:37;2.72;;;1.30;;
28523;SDS011;15734;50.904;6.922;2023-08-06T12:30:03;6.88;;;1.90;;
28523;SDS011;15734;50.904;6.922;2023-08-06T12:32:30;3.42;;;1.42;;
28523;SDS011;15734;50.904;6.922;2023-08-06T12:34:56;7.40;;;1.20;;
28523;SDS011;15734;50.904;6.922;2023-08-06T12:37:22;5.47;;;1.50;;
28523;SDS011;15734;50.904;6.922;2023-08-06T12:39:48;4.32;;;1.40;;
28523;SDS011;15734;50.904;6.922;2023-08-06T12:42:14;12.95;;;1.73;;
28523;SDS011;15734;50.904;6.922;2023-08-06T12:44:40;1.92;;;1.40;;
28523;SDS011;15734;50.904;6.922;2023-08-06T12:47:06;9.73;;;1.70;;
28523;SDS011;15734;50.904;6.922;2023-08-06T12:49:32;2.65;;;1.70;;
28523;SDS011;15734;50.904;6.922;2023-08-06T12:51:58;6.97;;;1.70;;
28523;SDS011;15734;50.904;6.922;2023-08-06T12:54:24;10.75;;;2.10;;
28523;SDS011;15734;50.904;6.922;2023-08-06T12:56:50;8.73;;;2.28;;
28523;SDS011;15734;50.904;6.922;2023-08-06T12:59:16;8.95;;;1.92;;
28523;SDS011;15734;50.904;6.922;2023-08-06T13:01:43;4.50;;;2.10;;
28523;SDS011;15734;50.904;6.922;2023-08-06T13:04:09;5.25;;;2.20;;
28523;SDS011;15734;50.904;6.922;2023-08-06T13:06:35;9.40;;;2.30;;
28523;SDS011;15734;50.904;6.922;2023-08-06T13:09:08;4.30;;;2.33;;
28523;SDS011;15734;50.904;6.922;2023-08-06T13:11:34;9.73;;;2.67;;
28523;SDS011;15734;50.904;6.922;2023-08-06T13:14:08;6.03;;;2.75;;
28523;SDS011;15734;50.904;6.922;2023-08-06T13:16:35;10.38;;;3.63;;
28523;SDS011;15734;50.904;6.922;2023-08-06T13:19:01;8.75;;;2.85;;
28523;SDS011;15734;50.904;6.922;2023-08-06T13:21:30;5.60;;;3.20;;
28523;SDS011;15734;50.904;6.922;2023-08-06T13:23:58;11.00;;;2.83;;
28523;SDS011;15734;50.904;6.922;2023-08-06T13:26:24;9.70;;;3.38;;
28523;SDS011;15734;50.904;6.922;2023-08-06T13:28:50;6.13;;;3.13;;
28523;SDS011;15734;50.904;6.922;2023-08-06T13:31:15;6.85;;;2.92;;
28523;SDS011;15734;50.904;6.922;2023-08-06T13:33:41;4.65;;;2.85;;
28523;SDS011;15734;50.904;6.922;2023-08-06T13:36:07;7.72;;;4.07;;
28523;SDS011;15734;50.904;6.922;2023-08-06T13:38:32;15.65;;;3.80;;
28523;SDS011;15734;50.904;6.922;2023-08-06T13:40:58;10.75;;;3.83;;
28523;SDS011;15734;50.904;6.922;2023-08-06T13:43:24;7.85;;;3.72;;
28523;SDS011;15734;50.904;6.922;2023-08-06T13:45:49;9.48;;;3.63;;
28523;SDS011;15734;50.904;6.922;2023-08-06T13:48:15;8.82;;;4.30;;
28523;SDS011;15734;50.904;6.922;2023-08-06T13:50:40;9.80;;;4.70;;
28523;SDS011;15734;50.904;6.922;2023-08-06T13:53:06;7.95;;;3.78;;
28523;SDS011;15734;50.904;6.922;2023-08-06T13:55:31;8.55;;;4.55;;
28523;SDS011;15734;50.904;6.922;2023-08-06T13:57:57;7.47;;;3.60;;
28523;SDS011;15734;50.904;6.922;2023-08-06T14:00:22;14.73;;;4.05;;
28523;SDS011;15734;50.904;6.922;2023-08-06T14:02:48;4.25;;;3.00;;
28523;SDS011;15734;50.904;6.922;2023-08-06T14:05:13;6.43;;;3.47;;
28523;SDS011;15734;50.904;6.922;2023-08-06T14:07:39;6.22;;;3.30;;
28523;SDS011;15734;50.904;6.922;2023-08-06T14:10:05;8.90;;;3.17;;
28523;SDS011;15734;50.904;6.922;2023-08-06T14:12:31;8.88;;;2.55;;
28523;SDS011;15734;50.904;6.922;2023-08-06T14:14:56;4.97;;;2.08;;
28523;SDS011;15734;50.904;6.922;2023-08-06T14:17:22;7.35;;;2.35;;
28523;SDS011;15734;50.904;6.922;2023-08-06T14:19:48;3.20;;;1.55;;
28523;SDS011;15734;50.904;6.922;2023-08-06T14:22:13;6.78;;;2.60;;
28523;SDS011;15734;50.904;6.922;2023-08-06T14:24:39;7.68;;;1.38;;
28523;SDS011;15734;50.904;6.922;2023-08-06T14:27:04;5.25;;;1.30;;
28523;SDS011;15734;50.904;6.922;2023-08-06T14:29:31;3.15;;;1.17;;
28523;SDS011;15734;50.904;6.922;2023-08-06T14:31:56;9.18;;;1.40;;
28523;SDS011;15734;50.904;6.922;2023-08-06T14:34:22;4.97;;;1.23;;
28523;SDS011;15734;50.904;6.922;2023-08-06T14:36:47;3.28;;;1.00;;
28523;SDS011;15734;50.904;6.922;2023-08-06T14:39:13;7.97;;;1.20;;
28523;SDS011;15734;50.904;6.922;2023-08-06T14:41:38;2.45;;;1.10;;
28523;SDS011;15734;50.904;6.922;2023-08-06T14:44:04;4.55;;;1.30;;